Time,TemperatureF,DewpointF,PressureIn,WindDirection,WindDirectionDegrees,WindSpeedMPH,WindSpeedGustMPH,Humidity,HourlyPrecipIn,Conditions,Clouds,dailyrainin,SoftwareType,DateUTC
2013-02-06 00:00:00,49.0,48.0,-100.00,East,85,1.0,-999.0,98,0.00,,,0.00,,2013-02-06 06:00:00,
2013-02-06 00:32:00,49.0,48.0,-100.00,East,85,1.0,-999.0,98,0.00,,,0.00,,2013-02-06 06:32:00,
2013-02-06 00:42:00,49.0,48.0,-100.00,East,85,1.0,-999.0,98,0.00,,,0.00,,2013-02-06 06:42:00,
2013-02-06 00:52:00,49.0,48.0,-100.00,East,85,1.0,-999.0,98,0.00,,,0.00,,2013-02-06 06:52:00,
2013-02-06 01:00:00,48.0,48.0,-100.00,East,96,1.0,-999.0,98,0.00,,,0.00,,2013-02-06 07:00:00,
2013-02-06 01:32:00,48.0,48.0,-100.00,East,96,1.0,-999.0,98,0.00,,,0.00,,2013-02-06 07:32:00,
2013-02-06 01:42:00,48.0,48.0,-100.00,East,96,1.0,-999.0,98,0.00,,,0.00,,2013-02-06 07:42:00,
2013-02-06 01:52:00,48.0,48.0,-100.00,East,96,1.0,-999.0,98,0.00,,,0.00,,2013-02-06 07:52:00,
2013-02-06 02:00:00,48.0,47.0,-100.00,East,92,1.0,-999.0,99,0.00,,,0.00,,2013-02-06 08:00:00,
2013-02-06 02:31:00,48.0,47.0,-100.00,East,92,1.0,-999.0,99,0.00,,,0.00,,2013-02-06 08:31:00,
2013-02-06 02:42:00,48.0,47.0,-100.00,East,92,1.0,-999.0,99,0.00,,,0.00,,2013-02-06 08:42:00,
2013-02-06 02:53:00,48.0,47.0,-100.00,East,92,1.0,-999.0,99,0.00,,,0.00,,2013-02-06 08:53:00,
2013-02-06 03:00:00,48.0,47.0,-100.00,East,97,1.0,-999.0,99,0.00,,,0.00,,2013-02-06 09:00:00,
2013-02-06 03:32:00,48.0,47.0,-100.00,East,97,1.0,-999.0,99,0.00,,,0.00,,2013-02-06 09:32:00,
2013-02-06 03:42:00,48.0,47.0,-100.00,East,97,1.0,-999.0,99,0.00,,,0.00,,2013-02-06 09:42:00,
2013-02-06 03:52:00,48.0,47.0,-100.00,East,97,1.0,-999.0,99,0.00,,,0.00,,2013-02-06 09:52:00,
2013-02-06 04:00:00,48.0,47.0,-100.00,ESE,106,1.0,-999.0,99,0.00,,,0.00,,2013-02-06 10:00:00,
2013-02-06 04:31:00,48.0,47.0,-100.00,ESE,106,1.0,-999.0,99,0.00,,,0.00,,2013-02-06 10:31:00,
2013-02-06 04:42:00,48.0,47.0,-100.00,ESE,106,1.0,-999.0,99,0.00,,,0.00,,2013-02-06 10:42:00,
2013-02-06 04:52:00,48.0,47.0,-100.00,ESE,106,1.0,-999.0,99,0.00,,,0.00,,2013-02-06 10:52:00,
2013-02-06 05:00:00,47.0,47.0,-100.00,ENE,62,1.0,-999.0,98,0.00,,,0.00,,2013-02-06 11:00:00,
2013-02-06 05:32:00,47.0,47.0,-100.00,ENE,62,1.0,-999.0,98,0.00,,,0.00,,2013-02-06 11:32:00,
2013-02-06 05:42:00,47.0,47.0,-100.00,ENE,62,1.0,-999.0,98,0.00,,,0.00,,2013-02-06 11:42:00,
2013-02-06 05:53:00,47.0,47.0,-100.00,ENE,62,1.0,-999.0,98,0.00,,,0.00,,2013-02-06 11:53:00,
2013-02-06 06:00:00,48.0,47.0,-100.00,NNE,33,1.0,-999.0,97,0.00,,,0.00,,2013-02-06 12:00:00,
2013-02-06 06:32:00,48.0,47.0,-100.00,NNE,33,1.0,-999.0,97,0.00,,,0.00,,2013-02-06 12:32:00,
2013-02-06 06:42:00,48.0,47.0,-100.00,NNE,33,1.0,-999.0,97,0.00,,,0.00,,2013-02-06 12:42:00,
2013-02-06 06:52:00,48.0,47.0,-100.00,NNE,33,1.0,-999.0,97,0.00,,,0.00,,2013-02-06 12:52:00,
2013-02-06 07:00:00,48.0,47.0,-100.00,East,85,0.0,-999.0,97,0.00,,,0.00,,2013-02-06 13:00:00,
2013-02-06 07:32:00,48.0,47.0,-100.00,East,85,0.0,-999.0,97,0.00,,,0.00,,2013-02-06 13:32:00,
2013-02-06 07:42:00,48.0,47.0,-100.00,East,85,0.0,-999.0,97,0.00,,,0.00,,2013-02-06 13:42:00,
2013-02-06 07:52:00,48.0,47.0,-100.00,East,85,0.0,-999.0,97,0.00,,,0.00,,2013-02-06 13:52:00,
2013-02-06 08:00:00,50.0,49.0,-100.00,NW,318,0.0,-999.0,98,0.00,,,0.00,,2013-02-06 14:00:00,
2013-02-06 08:32:00,50.0,49.0,-100.00,NW,318,0.0,-999.0,98,0.00,,,0.00,,2013-02-06 14:32:00,
2013-02-06 08:42:00,50.0,49.0,-100.00,NW,318,0.0,-999.0,98,0.00,,,0.00,,2013-02-06 14:42:00,
2013-02-06 08:52:00,50.0,49.0,-100.00,NW,318,0.0,-999.0,98,0.00,,,0.00,,2013-02-06 14:52:00,
2013-02-06 09:00:00,52.0,52.0,-100.00,WSW,239,0.0,-999.0,99,0.00,,,0.00,,2013-02-06 15:00:00,
2013-02-06 09:52:00,52.0,52.0,-100.00,WSW,239,0.0,-999.0,99,0.00,,,0.00,,2013-02-06 15:52:00,
2013-02-06 10:00:00,53.0,52.0,-100.00,SSE,163,1.0,-999.0,95,0.00,,,0.00,,2013-02-06 16:00:00,
2013-02-06 10:32:00,53.0,52.0,-100.00,SSE,163,1.0,-999.0,95,0.00,,,0.00,,2013-02-06 16:32:00,
2013-02-06 10:42:00,53.0,52.0,-100.00,SSE,163,1.0,-999.0,95,0.00,,,0.00,,2013-02-06 16:42:00,
2013-02-06 10:52:00,53.0,52.0,-100.00,SSE,163,1.0,-999.0,95,0.00,,,0.00,,2013-02-06 16:52:00,
2013-02-06 11:00:00,56.0,52.0,-100.00,SSE,148,2.0,-999.0,87,0.00,,,0.00,,2013-02-06 17:00:00,
2013-02-06 11:32:00,56.0,52.0,-100.00,SSE,148,2.0,-999.0,87,0.00,,,0.00,,2013-02-06 17:32:00,
2013-02-06 11:42:00,56.0,52.0,-100.00,SSE,148,2.0,-999.0,87,0.00,,,0.00,,2013-02-06 17:42:00,
2013-02-06 11:52:00,56.0,52.0,-100.00,SSE,148,2.0,-999.0,87,0.00,,,0.00,,2013-02-06 17:52:00,
2013-02-06 12:00:00,55.0,52.0,-100.00,ESE,118,1.0,-999.0,89,0.00,,,0.00,,2013-02-06 18:00:00,
2013-02-06 12:32:00,55.0,52.0,-100.00,ESE,118,1.0,-999.0,89,0.00,,,0.00,,2013-02-06 18:32:00,
2013-02-06 12:42:00,55.0,52.0,-100.00,ESE,118,1.0,-999.0,89,0.00,,,0.00,,2013-02-06 18:42:00,
2013-02-06 12:52:00,55.0,52.0,-100.00,ESE,118,1.0,-999.0,89,0.00,,,0.00,,2013-02-06 18:52:00,
2013-02-06 13:00:00,55.0,50.0,-100.00,SSE,149,2.0,-999.0,83,0.00,,,0.00,,2013-02-06 19:00:00,
2013-02-06 13:32:00,55.0,50.0,-100.00,SSE,149,2.0,-999.0,83,0.00,,,0.00,,2013-02-06 19:32:00,
2013-02-06 13:42:00,55.0,50.0,-100.00,SSE,149,2.0,-999.0,83,0.00,,,0.00,,2013-02-06 19:42:00,
2013-02-06 13:52:00,55.0,50.0,-100.00,SSE,149,2.0,-999.0,83,0.00,,,0.00,,2013-02-06 19:52:00,
2013-02-06 14:00:00,53.0,50.0,-100.00,NE,56,0.0,-999.0,89,0.01,,,0.01,,2013-02-06 20:00:00,
2013-02-06 14:32:00,53.0,50.0,-100.00,NE,56,0.0,-999.0,89,0.01,,,0.01,,2013-02-06 20:32:00,
2013-02-06 14:42:00,53.0,50.0,-100.00,NE,56,0.0,-999.0,89,0.01,,,0.01,,2013-02-06 20:42:00,
2013-02-06 14:52:00,53.0,50.0,-100.00,NE,56,0.0,-999.0,89,0.01,,,0.01,,2013-02-06 20:52:00,
2013-02-06 15:00:00,51.0,50.0,-100.00,ESE,116,0.0,-999.0,97,0.06,,,0.07,,2013-02-06 21:00:00,
2013-02-06 15:32:00,51.0,50.0,-100.00,ESE,116,0.0,-999.0,97,0.06,,,0.07,,2013-02-06 21:32:00,
2013-02-06 15:42:00,51.0,50.0,-100.00,ESE,116,0.0,-999.0,97,0.06,,,0.07,,2013-02-06 21:42:00,
2013-02-06 15:52:00,51.0,50.0,-100.00,ESE,116,0.0,-999.0,97,0.06,,,0.07,,2013-02-06 21:52:00,
2013-02-06 16:00:00,50.0,50.0,-100.00,ESE,109,0.0,-999.0,98,0.07,,,0.14,,2013-02-06 22:00:00,
2013-02-06 16:31:00,50.0,50.0,-100.00,ESE,109,0.0,-999.0,98,0.07,,,0.14,,2013-02-06 22:31:00,
2013-02-06 16:42:00,50.0,50.0,-100.00,ESE,109,0.0,-999.0,98,0.07,,,0.14,,2013-02-06 22:42:00,
2013-02-06 16:52:00,50.0,50.0,-100.00,ESE,109,0.0,-999.0,98,0.07,,,0.14,,2013-02-06 22:52:00,
2013-02-06 17:00:00,50.0,50.0,-100.00,SSE,156,0.0,-999.0,99,0.02,,,0.16,,2013-02-06 23:00:00,
2013-02-06 17:32:00,50.0,50.0,-100.00,SSE,156,0.0,-999.0,99,0.02,,,0.16,,2013-02-06 23:32:00,
2013-02-06 17:42:00,50.0,50.0,-100.00,SSE,156,0.0,-999.0,99,0.02,,,0.16,,2013-02-06 23:42:00,
2013-02-06 17:52:00,50.0,50.0,-100.00,SSE,156,0.0,-999.0,99,0.02,,,0.16,,2013-02-06 23:52:00,
2013-02-06 19:00:00,50.0,50.0,-100.00,SSW,201,1.0,-999.0,98,0.00,,,0.17,,2013-02-07 01:00:00,
2013-02-06 19:32:00,50.0,50.0,-100.00,SSW,201,1.0,-999.0,98,0.00,,,0.17,,2013-02-07 01:32:00,
2013-02-06 19:42:00,50.0,50.0,-100.00,SSW,201,1.0,-999.0,98,0.00,,,0.17,,2013-02-07 01:42:00,
2013-02-06 19:52:00,50.0,50.0,-100.00,SSW,201,1.0,-999.0,98,0.00,,,0.17,,2013-02-07 01:52:00,
2013-02-06 20:00:00,51.0,50.0,-100.00,East,97,0.0,-999.0,98,0.00,,,0.17,,2013-02-07 02:00:00,
2013-02-06 20:32:00,51.0,50.0,-100.00,East,97,0.0,-999.0,98,0.00,,,0.17,,2013-02-07 02:32:00,
2013-02-06 20:42:00,51.0,50.0,-100.00,East,97,0.0,-999.0,98,0.00,,,0.17,,2013-02-07 02:42:00,
2013-02-06 20:52:00,51.0,50.0,-100.00,East,97,0.0,-999.0,98,0.00,,,0.17,,2013-02-07 02:52:00,
2013-02-06 21:00:00,51.0,50.0,-100.00,SE,130,1.0,-999.0,99,0.01,,,0.18,,2013-02-07 03:00:00,
2013-02-06 21:31:00,51.0,50.0,-100.00,SE,130,1.0,-999.0,99,0.01,,,0.18,,2013-02-07 03:31:00,
2013-02-06 21:42:00,51.0,50.0,-100.00,SE,130,1.0,-999.0,99,0.01,,,0.18,,2013-02-07 03:42:00,
2013-02-06 21:52:00,51.0,50.0,-100.00,SE,130,1.0,-999.0,99,0.01,,,0.18,,2013-02-07 03:52:00,
2013-02-06 22:00:00,51.0,51.0,-100.00,SSE,158,2.0,-999.0,99,0.01,,,0.19,,2013-02-07 04:00:00,
2013-02-06 22:32:00,51.0,51.0,-100.00,SSE,158,2.0,-999.0,99,0.01,,,0.19,,2013-02-07 04:32:00,
2013-02-06 22:42:00,51.0,51.0,-100.00,SSE,158,2.0,-999.0,99,0.01,,,0.19,,2013-02-07 04:42:00,
2013-02-06 22:53:00,51.0,51.0,-100.00,SSE,158,2.0,-999.0,99,0.01,,,0.19,,2013-02-07 04:53:00,
2013-02-06 23:00:00,51.0,51.0,-100.00,South,175,1.0,-999.0,99,0.00,,,0.19,,2013-02-07 05:00:00,
2013-02-06 23:32:00,51.0,51.0,-100.00,South,175,1.0,-999.0,99,0.00,,,0.19,,2013-02-07 05:32:00,
2013-02-06 23:42:00,51.0,51.0,-100.00,South,175,1.0,-999.0,99,0.00,,,0.19,,2013-02-07 05:42:00,
2013-02-06 23:52:00,51.0,51.0,-100.00,South,175,1.0,-999.0,99,0.00,,,0.19,,2013-02-07 05:52:00,